sensor_id;sensor_type;location;lat;lon;timestamp;temperature;humidity
8372;DHT22;4223;48.724;8.982;2022-12-18T00:01:01;-12.30;69.40
8372;DHT22;4223;48.724;8.982;2022-12-18T00:03:31;-12.30;69.70
8372;DHT22;4223;48.724;8.982;2022-12-18T00:05:58;-11.50;70.10
8372;DHT22;4223;48.724;8.982;2022-12-18T00:08:25;-12.40;67.80
8372;DHT22;4223;48.724;8.982;2022-12-18T00:10:52;-12.40;64.30
8372;DHT22;4223;48.724;8.982;2022-12-18T00:13:19;-12.40;61.80
8372;DHT22;4223;48.724;8.982;2022-12-18T00:15:47;-12.50;63.90
8372;DHT22;4223;48.724;8.982;2022-12-18T00:18:14;-12.50;61.40
8372;DHT22;4223;48.724;8.982;2022-12-18T00:20:44;-12.50;63.20
8372;DHT22;4223;48.724;8.982;2022-12-18T00:23:11;-12.60;60.20
8372;DHT22;4223;48.724;8.982;2022-12-18T00:25:37;-12.50;70.50
8372;DHT22;4223;48.724;8.982;2022-12-18T00:28:04;-12.50;70.20
8372;DHT22;4223;48.724;8.982;2022-12-18T00:30:31;-12.40;72.40
8372;DHT22;4223;48.724;8.982;2022-12-18T00:32:59;-12.40;73.70
8372;DHT22;4223;48.724;8.982;2022-12-18T00:35:26;-12.40;75.60
8372;DHT22;4223;48.724;8.982;2022-12-18T00:37:53;-12.40;74.90
8372;DHT22;4223;48.724;8.982;2022-12-18T00:40:20;-12.40;72.30
8372;DHT22;4223;48.724;8.982;2022-12-18T00:42:47;-12.60;64.90
8372;DHT22;4223;48.724;8.982;2022-12-18T00:45:22;-12.60;61.80
8372;DHT22;4223;48.724;8.982;2022-12-18T00:47:49;-12.70;62.70
8372;DHT22;4223;48.724;8.982;2022-12-18T00:50:17;-12.70;66.20
8372;DHT22;4223;48.724;8.982;2022-12-18T00:52:46;-12.70;70.20
8372;DHT22;4223;48.724;8.982;2022-12-18T00:55:13;-12.60;75.10
8372;DHT22;4223;48.724;8.982;2022-12-18T00:57:40;-12.60;74.80
8372;DHT22;4223;48.724;8.982;2022-12-18T01:00:10;-12.60;78.60
8372;DHT22;4223;48.724;8.982;2022-12-18T01:02:39;-12.60;80.10
8372;DHT22;4223;48.724;8.982;2022-12-18T01:05:07;-12.60;80.10
8372;DHT22;4223;48.724;8.982;2022-12-18T01:07:36;-12.50;81.60
8372;DHT22;4223;48.724;8.982;2022-12-18T01:10:03;-12.50;83.10
8372;DHT22;4223;48.724;8.982;2022-12-18T01:12:30;-12.50;78.00
8372;DHT22;4223;48.724;8.982;2022-12-18T01:14:57;-12.50;82.30
8372;DHT22;4223;48.724;8.982;2022-12-18T01:17:24;-12.60;72.00
8372;DHT22;4223;48.724;8.982;2022-12-18T01:19:51;-12.60;65.50
8372;DHT22;4223;48.724;8.982;2022-12-18T01:22:18;-12.70;60.20
8372;DHT22;4223;48.724;8.982;2022-12-18T01:24:46;-12.80;60.60
8372;DHT22;4223;48.724;8.982;2022-12-18T01:27:13;-12.80;57.60
8372;DHT22;4223;48.724;8.982;2022-12-18T01:29:40;-12.90;59.20
8372;DHT22;4223;48.724;8.982;2022-12-18T01:32:07;-12.90;67.30
8372;DHT22;4223;48.724;8.982;2022-12-18T01:34:35;-12.90;65.20
8372;DHT22;4223;48.724;8.982;2022-12-18T01:37:02;-13.00;61.80
8372;DHT22;4223;48.724;8.982;2022-12-18T01:39:30;-12.90;66.20
8372;DHT22;4223;48.724;8.982;2022-12-18T01:41:58;-12.90;70.60
8372;DHT22;4223;48.724;8.982;2022-12-18T01:44:50;-12.80;68.90
8372;DHT22;4223;48.724;8.982;2022-12-18T01:47:21;-12.90;61.70
8372;DHT22;4223;48.724;8.982;2022-12-18T01:49:49;-12.90;59.90
8372;DHT22;4223;48.724;8.982;2022-12-18T01:52:18;-12.90;64.40
8372;DHT22;4223;48.724;8.982;2022-12-18T01:54:46;-12.80;69.00
8372;DHT22;4223;48.724;8.982;2022-12-18T01:57:15;-12.80;70.40
8372;DHT22;4223;48.724;8.982;2022-12-18T01:59:45;-12.70;73.50
8372;DHT22;4223;48.724;8.982;2022-12-18T02:02:14;-12.70;71.70
8372;DHT22;4223;48.724;8.982;2022-12-18T02:04:42;-12.10;71.70
8372;DHT22;4223;48.724;8.982;2022-12-18T02:07:14;-12.70;71.40
8372;DHT22;4223;48.724;8.982;2022-12-18T02:09:47;-12.70;69.20
8372;DHT22;4223;48.724;8.982;2022-12-18T02:12:18;-12.70;69.20
8372;DHT22;4223;48.724;8.982;2022-12-18T02:14:52;-12.60;70.30
8372;DHT22;4223;48.724;8.982;2022-12-18T02:17:23;-12.60;67.70
8372;DHT22;4223;48.724;8.982;2022-12-18T02:20:05;-12.70;64.50
8372;DHT22;4223;48.724;8.982;2022-12-18T02:22:40;-12.70;65.10
8372;DHT22;4223;48.724;8.982;2022-12-18T02:25:21;-12.70;60.20
8372;DHT22;4223;48.724;8.982;2022-12-18T02:27:53;-12.70;61.30
8372;DHT22;4223;48.724;8.982;2022-12-18T02:30:22;-12.70;63.70
8372;DHT22;4223;48.724;8.982;2022-12-18T02:32:51;-12.70;63.90
8372;DHT22;4223;48.724;8.982;2022-12-18T02:35:22;-12.70;64.60
8372;DHT22;4223;48.724;8.982;2022-12-18T02:37:49;-12.70;65.60
8372;DHT22;4223;48.724;8.982;2022-12-18T02:40:17;-12.70;68.40
8372;DHT22;4223;48.724;8.982;2022-12-18T02:42:44;-12.70;70.00
8372;DHT22;4223;48.724;8.982;2022-12-18T02:45:12;-12.70;74.30
8372;DHT22;4223;48.724;8.982;2022-12-18T02:47:42;-12.50;80.10
8372;DHT22;4223;48.724;8.982;2022-12-18T02:50:13;-12.50;73.70
8372;DHT22;4223;48.724;8.982;2022-12-18T02:52:52;-12.60;71.20
8372;DHT22;4223;48.724;8.982;2022-12-18T02:55:28;-12.40;82.00
8372;DHT22;4223;48.724;8.982;2022-12-18T02:58:04;-12.40;82.40
8372;DHT22;4223;48.724;8.982;2022-12-18T03:00:37;-12.40;77.60
8372;DHT22;4223;48.724;8.982;2022-12-18T03:03:07;-12.40;73.70
8372;DHT22;4223;48.724;8.982;2022-12-18T03:05:39;-12.30;79.20
8372;DHT22;4223;48.724;8.982;2022-12-18T03:08:10;-12.10;87.60
8372;DHT22;4223;48.724;8.982;2022-12-18T03:10:44;-11.90;91.80
8372;DHT22;4223;48.724;8.982;2022-12-18T03:13:14;-11.70;93.60
8372;DHT22;4223;48.724;8.982;2022-12-18T03:15:47;-11.70;90.60
8372;DHT22;4223;48.724;8.982;2022-12-18T03:18:21;-11.90;74.60
8372;DHT22;4223;48.724;8.982;2022-12-18T03:20:51;-12.00;66.00
8372;DHT22;4223;48.724;8.982;2022-12-18T03:23:22;-12.00;70.50
8372;DHT22;4223;48.724;8.982;2022-12-18T03:25:52;-12.00;70.30
8372;DHT22;4223;48.724;8.982;2022-12-18T03:28:21;-12.00;69.70
8372;DHT22;4223;48.724;8.982;2022-12-18T03:30:53;-11.90;74.70
8372;DHT22;4223;48.724;8.982;2022-12-18T03:33:26;-11.80;81.10
8372;DHT22;4223;48.724;8.982;2022-12-18T03:35:55;-11.60;88.20
8372;DHT22;4223;48.724;8.982;2022-12-18T03:38:22;-11.40;95.40
8372;DHT22;4223;48.724;8.982;2022-12-18T03:40:56;-11.20;99.80
8372;DHT22;4223;48.724;8.982;2022-12-18T03:43:35;-11.00;99.90
8372;DHT22;4223;48.724;8.982;2022-12-18T03:46:08;-10.80;99.90
8372;DHT22;4223;48.724;8.982;2022-12-18T03:48:41;-10.70;99.90
8372;DHT22;4223;48.724;8.982;2022-12-18T03:51:10;-10.60;99.90
8372;DHT22;4223;48.724;8.982;2022-12-18T03:53:45;-10.50;99.90
8372;DHT22;4223;48.724;8.982;2022-12-18T03:56:14;-10.40;99.90
8372;DHT22;4223;48.724;8.982;2022-12-18T03:58:43;-10.40;99.90
8372;DHT22;4223;48.724;8.982;2022-12-18T04:01:14;-10.30;99.90
8372;DHT22;4223;48.724;8.982;2022-12-18T04:03:44;-10.30;99.90
8372;DHT22;4223;48.724;8.982;2022-12-18T04:06:14;-10.30;99.90
8372;DHT22;4223;48.724;8.982;2022-12-18T04:08:41;-10.40;99.90
8372;DHT22;4223;48.724;8.982;2022-12-18T04:11:08;-10.30;99.90
8372;DHT22;4223;48.724;8.982;2022-12-18T04:13:38;-10.30;99.90
8372;DHT22;4223;48.724;8.982;2022-12-18T04:16:05;-10.30;99.90
8372;DHT22;4223;48.724;8.982;2022-12-18T04:18:34;-10.20;99.90
8372;DHT22;4223;48.724;8.982;2022-12-18T04:21:04;-10.20;99.90
8372;DHT22;4223;48.724;8.982;2022-12-18T04:23:30;-10.10;99.90
8372;DHT22;4223;48.724;8.982;2022-12-18T04:25:57;-10.00;99.90
8372;DHT22;4223;48.724;8.982;2022-12-18T04:28:24;-10.00;99.90
8372;DHT22;4223;48.724;8.982;2022-12-18T04:30:51;-9.90;99.90
8372;DHT22;4223;48.724;8.982;2022-12-18T04:33:18;-9.90;99.90
8372;DHT22;4223;48.724;8.982;2022-12-18T04:35:46;-9.80;99.90
8372;DHT22;4223;48.724;8.982;2022-12-18T04:38:13;-9.80;99.90
8372;DHT22;4223;48.724;8.982;2022-12-18T04:40:41;-9.80;99.90
8372;DHT22;4223;48.724;8.982;2022-12-18T04:43:08;-9.70;99.90
8372;DHT22;4223;48.724;8.982;2022-12-18T04:45:35;-9.60;99.90
8372;DHT22;4223;48.724;8.982;2022-12-18T04:48:02;-9.60;99.90
8372;DHT22;4223;48.724;8.982;2022-12-18T04:50:30;-9.60;99.90
8372;DHT22;4223;48.724;8.982;2022-12-18T04:52:58;-9.50;99.90
8372;DHT22;4223;48.724;8.982;2022-12-18T04:55:25;-9.50;99.90
8372;DHT22;4223;48.724;8.982;2022-12-18T04:57:52;-9.40;99.90
8372;DHT22;4223;48.724;8.982;2022-12-18T05:00:20;-9.40;99.90
8372;DHT22;4223;48.724;8.982;2022-12-18T05:02:47;-9.30;99.90
8372;DHT22;4223;48.724;8.982;2022-12-18T05:05:15;-9.30;99.90
8372;DHT22;4223;48.724;8.982;2022-12-18T05:07:42;-9.30;99.90
8372;DHT22;4223;48.724;8.982;2022-12-18T05:10:10;-9.30;99.90
8372;DHT22;4223;48.724;8.982;2022-12-18T05:12:37;-9.30;99.90
8372;DHT22;4223;48.724;8.982;2022-12-18T05:15:23;-9.20;99.90
8372;DHT22;4223;48.724;8.982;2022-12-18T05:17:50;-9.10;99.90
8372;DHT22;4223;48.724;8.982;2022-12-18T05:20:17;-9.00;99.90
8372;DHT22;4223;48.724;8.982;2022-12-18T05:22:44;-9.00;99.90
8372;DHT22;4223;48.724;8.982;2022-12-18T05:25:12;-9.00;99.90
8372;DHT22;4223;48.724;8.982;2022-12-18T05:27:39;-9.00;99.90
8372;DHT22;4223;48.724;8.982;2022-12-18T05:30:07;-9.00;99.90
8372;DHT22;4223;48.724;8.982;2022-12-18T05:32:34;-8.90;99.90
8372;DHT22;4223;48.724;8.982;2022-12-18T05:35:01;-8.90;99.90
8372;DHT22;4223;48.724;8.982;2022-12-18T05:37:28;-8.80;99.90
8372;DHT22;4223;48.724;8.982;2022-12-18T05:39:55;-8.80;99.90
8372;DHT22;4223;48.724;8.982;2022-12-18T05:42:23;-8.80;99.90
8372;DHT22;4223;48.724;8.982;2022-12-18T05:44:50;-8.70;99.90
8372;DHT22;4223;48.724;8.982;2022-12-18T05:47:17;-8.70;99.90
8372;DHT22;4223;48.724;8.982;2022-12-18T05:49:44;-8.70;99.90
8372;DHT22;4223;48.724;8.982;2022-12-18T05:52:11;-8.70;99.90
8372;DHT22;4223;48.724;8.982;2022-12-18T05:54:38;-8.70;99.90
8372;DHT22;4223;48.724;8.982;2022-12-18T05:57:05;-8.80;99.90
8372;DHT22;4223;48.724;8.982;2022-12-18T05:59:33;-8.80;99.90
8372;DHT22;4223;48.724;8.982;2022-12-18T06:02:00;-8.90;99.90
8372;DHT22;4223;48.724;8.982;2022-12-18T06:04:27;-8.90;99.90
8372;DHT22;4223;48.724;8.982;2022-12-18T06:06:54;-9.00;99.90
8372;DHT22;4223;48.724;8.982;2022-12-18T06:09:21;-9.10;99.90
8372;DHT22;4223;48.724;8.982;2022-12-18T06:11:48;-9.20;99.90
8372;DHT22;4223;48.724;8.982;2022-12-18T06:14:14;-9.20;99.90
8372;DHT22;4223;48.724;8.982;2022-12-18T06:16:44;-9.30;99.90
8372;DHT22;4223;48.724;8.982;2022-12-18T06:19:14;-9.40;99.90
8372;DHT22;4223;48.724;8.982;2022-12-18T06:21:41;-8.60;99.90
8372;DHT22;4223;48.724;8.982;2022-12-18T06:24:08;-9.40;99.90
8372;DHT22;4223;48.724;8.982;2022-12-18T06:26:36;-9.50;99.90
8372;DHT22;4223;48.724;8.982;2022-12-18T06:29:03;-9.50;99.90
8372;DHT22;4223;48.724;8.982;2022-12-18T06:31:30;-9.60;99.90
8372;DHT22;4223;48.724;8.982;2022-12-18T06:33:58;-9.60;99.90
8372;DHT22;4223;48.724;8.982;2022-12-18T06:36:25;-9.70;99.90
8372;DHT22;4223;48.724;8.982;2022-12-18T06:38:52;-9.70;99.90
8372;DHT22;4223;48.724;8.982;2022-12-18T06:41:20;-9.80;99.90
8372;DHT22;4223;48.724;8.982;2022-12-18T06:43:47;-9.80;99.90
8372;DHT22;4223;48.724;8.982;2022-12-18T06:46:14;-9.90;99.90
8372;DHT22;4223;48.724;8.982;2022-12-18T06:48:41;-9.90;99.90
8372;DHT22;4223;48.724;8.982;2022-12-18T06:51:09;-10.00;99.90
8372;DHT22;4223;48.724;8.982;2022-12-18T06:53:36;-10.00;99.90
8372;DHT22;4223;48.724;8.982;2022-12-18T06:56:05;-10.10;99.90
8372;DHT22;4223;48.724;8.982;2022-12-18T06:58:32;-10.20;99.90
8372;DHT22;4223;48.724;8.982;2022-12-18T07:01:00;-10.30;99.90
8372;DHT22;4223;48.724;8.982;2022-12-18T07:03:27;-10.30;99.90
8372;DHT22;4223;48.724;8.982;2022-12-18T07:05:54;-10.40;99.90
8372;DHT22;4223;48.724;8.982;2022-12-18T07:08:23;-10.40;99.90
8372;DHT22;4223;48.724;8.982;2022-12-18T07:10:50;-10.50;99.90
8372;DHT22;4223;48.724;8.982;2022-12-18T07:13:16;-10.50;99.90
8372;DHT22;4223;48.724;8.982;2022-12-18T07:15:44;-10.50;99.90
8372;DHT22;4223;48.724;8.982;2022-12-18T07:18:10;-10.50;99.90
8372;DHT22;4223;48.724;8.982;2022-12-18T07:20:37;-10.50;99.90
8372;DHT22;4223;48.724;8.982;2022-12-18T07:23:04;-10.50;99.90
8372;DHT22;4223;48.724;8.982;2022-12-18T07:25:35;-10.50;99.90
8372;DHT22;4223;48.724;8.982;2022-12-18T07:28:02;-10.50;99.90
8372;DHT22;4223;48.724;8.982;2022-12-18T07:30:29;-10.50;99.90
8372;DHT22;4223;48.724;8.982;2022-12-18T07:32:56;-10.50;99.90
8372;DHT22;4223;48.724;8.982;2022-12-18T07:35:23;-10.50;99.90
8372;DHT22;4223;48.724;8.982;2022-12-18T07:37:50;-10.50;99.90
8372;DHT22;4223;48.724;8.982;2022-12-18T07:40:16;-10.60;99.90
8372;DHT22;4223;48.724;8.982;2022-12-18T07:42:45;-10.60;99.90
8372;DHT22;4223;48.724;8.982;2022-12-18T07:45:11;-10.60;99.90
8372;DHT22;4223;48.724;8.982;2022-12-18T07:47:38;-10.60;99.90
8372;DHT22;4223;48.724;8.982;2022-12-18T07:50:07;-10.60;99.90
8372;DHT22;4223;48.724;8.982;2022-12-18T07:52:34;-10.60;99.90
8372;DHT22;4223;48.724;8.982;2022-12-18T07:55:01;-10.70;98.90
8372;DHT22;4223;48.724;8.982;2022-12-18T07:57:27;-10.70;99.50
8372;DHT22;4223;48.724;8.982;2022-12-18T07:59:56;-10.70;99.50
8372;DHT22;4223;48.724;8.982;2022-12-18T08:02:22;-10.70;98.80
8372;DHT22;4223;48.724;8.982;2022-12-18T08:04:49;-10.70;98.70
8372;DHT22;4223;48.724;8.982;2022-12-18T08:07:16;-10.60;99.70
8372;DHT22;4223;48.724;8.982;2022-12-18T08:09:43;-10.60;99.50
8372;DHT22;4223;48.724;8.982;2022-12-18T08:12:10;-10.60;99.90
8372;DHT22;4223;48.724;8.982;2022-12-18T08:14:37;-10.50;99.90
8372;DHT22;4223;48.724;8.982;2022-12-18T08:17:05;-10.40;99.90
8372;DHT22;4223;48.724;8.982;2022-12-18T08:19:32;-10.30;99.90
8372;DHT22;4223;48.724;8.982;2022-12-18T08:21:59;-10.20;99.90
8372;DHT22;4223;48.724;8.982;2022-12-18T08:24:26;-10.10;99.90
8372;DHT22;4223;48.724;8.982;2022-12-18T08:26:53;-10.10;99.90
8372;DHT22;4223;48.724;8.982;2022-12-18T08:29:20;-9.90;99.90
8372;DHT22;4223;48.724;8.982;2022-12-18T08:31:47;-9.90;99.90
8372;DHT22;4223;48.724;8.982;2022-12-18T08:34:15;-9.90;99.90
8372;DHT22;4223;48.724;8.982;2022-12-18T08:36:42;-9.70;99.90
8372;DHT22;4223;48.724;8.982;2022-12-18T08:39:09;-9.60;99.90
8372;DHT22;4223;48.724;8.982;2022-12-18T08:41:36;-9.60;99.90
8372;DHT22;4223;48.724;8.982;2022-12-18T08:44:03;-9.50;99.90
8372;DHT22;4223;48.724;8.982;2022-12-18T08:46:47;-9.50;99.60
8372;DHT22;4223;48.724;8.982;2022-12-18T08:49:15;-9.50;98.70
8372;DHT22;4223;48.724;8.982;2022-12-18T08:51:42;-9.30;99.90
8372;DHT22;4223;48.724;8.982;2022-12-18T08:54:11;-9.20;99.90
8372;DHT22;4223;48.724;8.982;2022-12-18T08:56:38;-9.20;99.90
8372;DHT22;4223;48.724;8.982;2022-12-18T08:59:05;-9.00;99.90
8372;DHT22;4223;48.724;8.982;2022-12-18T09:01:32;-8.80;99.90
8372;DHT22;4223;48.724;8.982;2022-12-18T09:03:59;-8.70;99.90
8372;DHT22;4223;48.724;8.982;2022-12-18T09:06:27;-8.50;99.90
8372;DHT22;4223;48.724;8.982;2022-12-18T09:08:54;-8.40;99.90
8372;DHT22;4223;48.724;8.982;2022-12-18T09:11:22;-8.30;99.20
8372;DHT22;4223;48.724;8.982;2022-12-18T09:13:50;-8.10;99.90
8372;DHT22;4223;48.724;8.982;2022-12-18T09:16:17;-7.90;99.90
8372;DHT22;4223;48.724;8.982;2022-12-18T09:18:45;-7.60;99.90
8372;DHT22;4223;48.724;8.982;2022-12-18T09:21:13;-7.40;99.90
8372;DHT22;4223;48.724;8.982;2022-12-18T09:23:42;-7.20;99.90
8372;DHT22;4223;48.724;8.982;2022-12-18T09:26:09;-7.00;99.90
8372;DHT22;4223;48.724;8.982;2022-12-18T09:28:36;-6.80;98.90
8372;DHT22;4223;48.724;8.982;2022-12-18T09:31:05;-6.60;98.60
8372;DHT22;4223;48.724;8.982;2022-12-18T09:33:33;-6.40;97.50
8372;DHT22;4223;48.724;8.982;2022-12-18T09:36:01;-6.30;94.40
8372;DHT22;4223;48.724;8.982;2022-12-18T09:38:28;-6.10;91.30
8372;DHT22;4223;48.724;8.982;2022-12-18T09:41:00;-6.00;87.60
8372;DHT22;4223;48.724;8.982;2022-12-18T09:43:34;-5.80;85.20
8372;DHT22;4223;48.724;8.982;2022-12-18T09:46:05;-5.60;79.40
8372;DHT22;4223;48.724;8.982;2022-12-18T09:48:35;-5.50;71.10
8372;DHT22;4223;48.724;8.982;2022-12-18T09:51:10;-5.40;62.00
8372;DHT22;4223;48.724;8.982;2022-12-18T09:53:39;-5.30;63.60
8372;DHT22;4223;48.724;8.982;2022-12-18T09:56:13;-5.20;56.20
8372;DHT22;4223;48.724;8.982;2022-12-18T09:58:47;-5.10;49.90
8372;DHT22;4223;48.724;8.982;2022-12-18T10:01:17;-5.10;41.20
8372;DHT22;4223;48.724;8.982;2022-12-18T10:03:45;-5.20;48.10
8372;DHT22;4223;48.724;8.982;2022-12-18T10:06:15;-5.10;54.50
8372;DHT22;4223;48.724;8.982;2022-12-18T10:08:48;-5.00;43.50
8372;DHT22;4223;48.724;8.982;2022-12-18T10:11:30;-4.90;45.80
8372;DHT22;4223;48.724;8.982;2022-12-18T10:14:05;-4.70;37.40
8372;DHT22;4223;48.724;8.982;2022-12-18T10:16:42;-4.70;35.00
8372;DHT22;4223;48.724;8.982;2022-12-18T10:19:31;-4.60;37.40
8372;DHT22;4223;48.724;8.982;2022-12-18T10:22:11;-4.40;40.00
8372;DHT22;4223;48.724;8.982;2022-12-18T10:24:47;-4.20;22.70
8372;DHT22;4223;48.724;8.982;2022-12-18T10:27:18;-4.30;4.00
8372;DHT22;4223;48.724;8.982;2022-12-18T10:29:48;-4.30;13.70
8372;DHT22;4223;48.724;8.982;2022-12-18T10:32:17;-4.30;23.60
8372;DHT22;4223;48.724;8.982;2022-12-18T10:34:48;-4.20;20.70
8372;DHT22;4223;48.724;8.982;2022-12-18T10:37:18;-4.10;13.30
8372;DHT22;4223;48.724;8.982;2022-12-18T10:39:45;-3.80;10.50
8372;DHT22;4223;48.724;8.982;2022-12-18T10:42:18;-3.60;1.00
8372;DHT22;4223;48.724;8.982;2022-12-18T10:44:46;-3.30;1.00
8372;DHT22;4223;48.724;8.982;2022-12-18T10:47:27;-2.90;1.00
8372;DHT22;4223;48.724;8.982;2022-12-18T10:49:54;-2.70;1.00
8372;DHT22;4223;48.724;8.982;2022-12-18T10:52:22;-2.70;1.00
8372;DHT22;4223;48.724;8.982;2022-12-18T10:54:52;-2.60;1.00
8372;DHT22;4223;48.724;8.982;2022-12-18T10:57:33;-2.70;1.00
8372;DHT22;4223;48.724;8.982;2022-12-18T11:00:20;-2.20;1.00
8372;DHT22;4223;48.724;8.982;2022-12-18T11:02:48;-2.20;1.00
8372;DHT22;4223;48.724;8.982;2022-12-18T11:05:27;-2.00;1.00
8372;DHT22;4223;48.724;8.982;2022-12-18T11:07:55;-1.80;99.90
8372;DHT22;4223;48.724;8.982;2022-12-18T11:10:25;-1.80;99.90
8372;DHT22;4223;48.724;8.982;2022-12-18T11:12:54;-1.60;99.90
8372;DHT22;4223;48.724;8.982;2022-12-18T11:15:23;-1.50;1.00
8372;DHT22;4223;48.724;8.982;2022-12-18T11:17:53;-1.50;1.00
8372;DHT22;4223;48.724;8.982;2022-12-18T11:20:27;-1.80;99.90
8372;DHT22;4223;48.724;8.982;2022-12-18T11:22:58;-1.90;99.90
8372;DHT22;4223;48.724;8.982;2022-12-18T11:25:29;-2.10;99.90
8372;DHT22;4223;48.724;8.982;2022-12-18T11:28:00;-1.90;99.90
8372;DHT22;4223;48.724;8.982;2022-12-18T11:30:29;-1.60;99.90
8372;DHT22;4223;48.724;8.982;2022-12-18T11:32:59;-1.50;1.00
8372;DHT22;4223;48.724;8.982;2022-12-18T11:35:40;-1.40;1.00
8372;DHT22;4223;48.724;8.982;2022-12-18T11:38:18;-1.60;54.20
8372;DHT22;4223;48.724;8.982;2022-12-18T11:40:51;-1.60;1.00
8372;DHT22;4223;48.724;8.982;2022-12-18T11:43:26;-1.60;99.90
8372;DHT22;4223;48.724;8.982;2022-12-18T11:45:59;-1.60;1.00
8372;DHT22;4223;48.724;8.982;2022-12-18T11:48:28;-1.40;99.90
8372;DHT22;4223;48.724;8.982;2022-12-18T11:50:58;-1.20;1.00
8372;DHT22;4223;48.724;8.982;2022-12-18T11:53:26;-0.90;37.80
8372;DHT22;4223;48.724;8.982;2022-12-18T11:56:11;-0.90;1.00
8372;DHT22;4223;48.724;8.982;2022-12-18T11:58:51;-1.00;99.90
8372;DHT22;4223;48.724;8.982;2022-12-18T12:01:35;-1.10;99.90
8372;DHT22;4223;48.724;8.982;2022-12-18T12:04:21;-1.40;99.90
8372;DHT22;4223;48.724;8.982;2022-12-18T12:07:01;-1.30;1.00
8372;DHT22;4223;48.724;8.982;2022-12-18T12:09:36;-1.10;1.00
8372;DHT22;4223;48.724;8.982;2022-12-18T12:12:20;-1.10;99.90
8372;DHT22;4223;48.724;8.982;2022-12-18T12:14:57;-1.20;99.90
8372;DHT22;4223;48.724;8.982;2022-12-18T12:17:35;-1.30;1.00
8372;DHT22;4223;48.724;8.982;2022-12-18T12:20:12;-1.40;1.00
8372;DHT22;4223;48.724;8.982;2022-12-18T12:22:46;-1.30;1.00
8372;DHT22;4223;48.724;8.982;2022-12-18T12:25:29;-1.60;1.00
8372;DHT22;4223;48.724;8.982;2022-12-18T12:28:06;-1.50;1.00
8372;DHT22;4223;48.724;8.982;2022-12-18T12:30:47;-1.30;1.00
8372;DHT22;4223;48.724;8.982;2022-12-18T12:33:30;-1.60;1.00
8372;DHT22;4223;48.724;8.982;2022-12-18T12:36:04;-1.60;1.00
8372;DHT22;4223;48.724;8.982;2022-12-18T12:38:36;-1.60;1.00
8372;DHT22;4223;48.724;8.982;2022-12-18T12:41:11;-1.60;1.00
8372;DHT22;4223;48.724;8.982;2022-12-18T12:44:03;-1.50;1.00
8372;DHT22;4223;48.724;8.982;2022-12-18T12:46:33;-1.50;1.00
8372;DHT22;4223;48.724;8.982;2022-12-18T12:49:07;-1.40;1.00
8372;DHT22;4223;48.724;8.982;2022-12-18T12:51:37;-1.50;1.00
8372;DHT22;4223;48.724;8.982;2022-12-18T12:54:11;-1.60;1.00
8372;DHT22;4223;48.724;8.982;2022-12-18T12:56:44;-1.50;1.00
8372;DHT22;4223;48.724;8.982;2022-12-18T12:59:15;-1.40;1.00
8372;DHT22;4223;48.724;8.982;2022-12-18T13:01:51;-1.30;1.00
8372;DHT22;4223;48.724;8.982;2022-12-18T13:04:23;-1.30;1.00
8372;DHT22;4223;48.724;8.982;2022-12-18T13:06:57;-1.20;1.00
8372;DHT22;4223;48.724;8.982;2022-12-18T13:09:30;-1.20;1.00
8372;DHT22;4223;48.724;8.982;2022-12-18T13:12:02;-1.20;1.00
8372;DHT22;4223;48.724;8.982;2022-12-18T13:14:47;-1.00;1.00
8372;DHT22;4223;48.724;8.982;2022-12-18T13:17:17;-0.90;1.00
8372;DHT22;4223;48.724;8.982;2022-12-18T13:19:51;-1.10;1.00
8372;DHT22;4223;48.724;8.982;2022-12-18T13:22:23;-1.20;1.00
8372;DHT22;4223;48.724;8.982;2022-12-18T13:24:50;-1.20;1.00
8372;DHT22;4223;48.724;8.982;2022-12-18T13:27:45;-1.10;1.00
8372;DHT22;4223;48.724;8.982;2022-12-18T13:30:41;-1.00;1.00
8372;DHT22;4223;48.724;8.982;2022-12-18T13:33:37;-1.20;1.00
8372;DHT22;4223;48.724;8.982;2022-12-18T13:36:14;-1.20;1.00
8372;DHT22;4223;48.724;8.982;2022-12-18T13:38:42;-1.60;1.00
8372;DHT22;4223;48.724;8.982;2022-12-18T13:41:24;-1.40;1.00
8372;DHT22;4223;48.724;8.982;2022-12-18T13:43:53;-1.30;1.00
8372;DHT22;4223;48.724;8.982;2022-12-18T13:46:23;-1.20;1.00
8372;DHT22;4223;48.724;8.982;2022-12-18T13:48:55;-1.30;1.00
8372;DHT22;4223;48.724;8.982;2022-12-18T13:51:23;-1.30;1.00
8372;DHT22;4223;48.724;8.982;2022-12-18T13:53:52;-1.20;1.00
8372;DHT22;4223;48.724;8.982;2022-12-18T13:56:23;-1.30;1.00
8372;DHT22;4223;48.724;8.982;2022-12-18T13:59:13;-1.30;1.00
8372;DHT22;4223;48.724;8.982;2022-12-18T14:01:45;-1.40;1.00
8372;DHT22;4223;48.724;8.982;2022-12-18T14:04:19;-1.50;1.00
8372;DHT22;4223;48.724;8.982;2022-12-18T14:06:47;-1.70;1.00
8372;DHT22;4223;48.724;8.982;2022-12-18T14:09:15;-1.90;1.00
8372;DHT22;4223;48.724;8.982;2022-12-18T14:11:46;-2.00;1.00
8372;DHT22;4223;48.724;8.982;2022-12-18T14:14:15;-2.10;1.00
8372;DHT22;4223;48.724;8.982;2022-12-18T14:16:42;-2.00;1.00
8372;DHT22;4223;48.724;8.982;2022-12-18T14:19:14;-2.00;1.00
8372;DHT22;4223;48.724;8.982;2022-12-18T14:21:46;-2.00;1.00
8372;DHT22;4223;48.724;8.982;2022-12-18T14:24:14;-2.00;1.00
8372;DHT22;4223;48.724;8.982;2022-12-18T14:26:42;-2.10;1.00
8372;DHT22;4223;48.724;8.982;2022-12-18T14:29:22;-2.10;1.00
8372;DHT22;4223;48.724;8.982;2022-12-18T14:32:06;-2.10;1.00
8372;DHT22;4223;48.724;8.982;2022-12-18T14:34:34;-2.20;1.00
8372;DHT22;4223;48.724;8.982;2022-12-18T14:37:01;-2.30;7.30
8372;DHT22;4223;48.724;8.982;2022-12-18T14:39:28;-2.40;13.80
8372;DHT22;4223;48.724;8.982;2022-12-18T14:41:55;-2.40;19.30
8372;DHT22;4223;48.724;8.982;2022-12-18T14:44:22;-2.50;22.60
8372;DHT22;4223;48.724;8.982;2022-12-18T14:46:49;-2.60;27.60
8372;DHT22;4223;48.724;8.982;2022-12-18T14:49:24;-2.60;26.50
8372;DHT22;4223;48.724;8.982;2022-12-18T14:51:54;-2.70;31.70
8372;DHT22;4223;48.724;8.982;2022-12-18T14:54:22;-2.70;27.60
8372;DHT22;4223;48.724;8.982;2022-12-18T14:56:51;-2.80;27.50
8372;DHT22;4223;48.724;8.982;2022-12-18T14:59:22;-2.90;40.10
8372;DHT22;4223;48.724;8.982;2022-12-18T15:02:00;-3.00;42.40
8372;DHT22;4223;48.724;8.982;2022-12-18T15:04:30;-3.00;45.80
8372;DHT22;4223;48.724;8.982;2022-12-18T15:07:07;-3.10;51.60
8372;DHT22;4223;48.724;8.982;2022-12-18T15:09:34;-3.10;55.20
8372;DHT22;4223;48.724;8.982;2022-12-18T15:12:02;-3.20;59.00
8372;DHT22;4223;48.724;8.982;2022-12-18T15:14:39;-3.20;63.90
8372;DHT22;4223;48.724;8.982;2022-12-18T15:17:16;-3.30;69.70
8372;DHT22;4223;48.724;8.982;2022-12-18T15:19:44;-3.40;72.80
8372;DHT22;4223;48.724;8.982;2022-12-18T15:22:20;-3.40;74.90
8372;DHT22;4223;48.724;8.982;2022-12-18T15:24:48;-3.50;78.00
8372;DHT22;4223;48.724;8.982;2022-12-18T15:27:27;-3.50;81.80
8372;DHT22;4223;48.724;8.982;2022-12-18T15:32:45;-3.60;86.40
8372;DHT22;4223;48.724;8.982;2022-12-18T15:35:15;-3.70;86.80
8372;DHT22;4223;48.724;8.982;2022-12-18T15:37:45;-3.70;87.90
8372;DHT22;4223;48.724;8.982;2022-12-18T15:40:13;-3.80;90.00
8372;DHT22;4223;48.724;8.982;2022-12-18T15:42:40;-3.80;90.40
8372;DHT22;4223;48.724;8.982;2022-12-18T15:45:25;-3.90;90.30
8372;DHT22;4223;48.724;8.982;2022-12-18T15:47:52;-4.00;90.70
8372;DHT22;4223;48.724;8.982;2022-12-18T15:50:19;-4.00;91.70
8372;DHT22;4223;48.724;8.982;2022-12-18T15:52:50;-4.00;91.50
8372;DHT22;4223;48.724;8.982;2022-12-18T15:55:19;-4.00;91.00
8372;DHT22;4223;48.724;8.982;2022-12-18T15:58:04;-4.00;90.60
8372;DHT22;4223;48.724;8.982;2022-12-18T16:00:31;-4.10;90.60
8372;DHT22;4223;48.724;8.982;2022-12-18T16:02:59;-4.10;90.20
8372;DHT22;4223;48.724;8.982;2022-12-18T16:05:27;-4.10;91.40
8372;DHT22;4223;48.724;8.982;2022-12-18T16:07:56;-4.10;92.30
8372;DHT22;4223;48.724;8.982;2022-12-18T16:10:22;-4.20;92.70
8372;DHT22;4223;48.724;8.982;2022-12-18T16:12:50;-4.20;92.80
8372;DHT22;4223;48.724;8.982;2022-12-18T16:15:17;-4.20;94.20
8372;DHT22;4223;48.724;8.982;2022-12-18T16:17:45;-4.20;94.60
8372;DHT22;4223;48.724;8.982;2022-12-18T16:20:13;-4.20;94.60
8372;DHT22;4223;48.724;8.982;2022-12-18T16:22:42;-4.20;94.90